createdAt,value
2022-10-18T04:02:34.115Z,99.99
2022-10-18T04:05:00.830Z,99.99
2022-10-18T04:07:27.423Z,99.99
2022-10-18T04:09:54.001Z,99.99
2022-10-18T04:12:20.522Z,99.99
2022-10-18T04:14:47.035Z,99.99
2022-10-18T04:17:13.592Z,99.99
2022-10-18T04:19:41.045Z,99.99
2022-10-18T04:22:08.518Z,99.99
2022-10-18T04:24:35.265Z,99.99
2022-10-18T04:27:02.073Z,99.99
2022-10-18T04:29:29.048Z,99.99
2022-10-18T04:31:58.667Z,99.99
2022-10-18T04:34:25.312Z,99.99
2022-10-18T04:36:52.052Z,99.99
2022-10-18T04:39:18.583Z,99.99
2022-10-18T04:41:45.077Z,99.99
2022-10-18T04:44:11.842Z,99.99
2022-10-18T04:46:38.377Z,99.99
2022-10-18T04:49:05.036Z,99.99
2022-10-18T04:51:31.574Z,99.99
2022-10-18T04:53:58.100Z,99.99
2022-10-18T04:56:24.601Z,99.99
2022-10-18T04:58:51.166Z,99.99
2022-10-18T05:01:19.016Z,99.99
2022-10-18T05:03:45.678Z,99.99
2022-10-18T05:06:12.160Z,99.99
2022-10-18T05:08:38.875Z,99.99
2022-10-18T05:11:05.695Z,99.99
2022-10-18T05:13:32.406Z,99.99
2022-10-18T05:16:00.214Z,99.99
2022-10-18T05:18:27.041Z,99.99
2022-10-18T05:20:53.585Z,99.99
2022-10-18T05:23:20.306Z,99.99
2022-10-18T05:25:47.198Z,99.99
2022-10-18T05:28:38.260Z,99.99
2022-10-18T05:31:02.655Z,99.99
2022-10-18T05:33:29.805Z,99.99
2022-10-18T05:35:56.391Z,99.99
2022-10-18T05:38:23.123Z,99.99
2022-10-18T05:40:49.676Z,99.99
2022-10-18T05:43:17.756Z,99.99
2022-10-18T05:45:48.827Z,99.99
2022-10-18T05:48:15.334Z,99.99
2022-10-18T05:50:42.029Z,99.99
2022-10-18T05:53:12.366Z,99.99
2022-10-18T05:55:51.242Z,99.99
2022-10-18T05:58:17.785Z,99.99
2022-10-18T06:00:44.368Z,99.99
2022-10-18T06:03:11.505Z,99.99
2022-10-18T06:08:10.372Z,99.99
2022-10-18T06:10:41.559Z,99.99
2022-10-18T06:13:08.159Z,99.99
2022-10-18T06:15:34.931Z,99.99
2022-10-18T06:18:01.799Z,99.99
2022-10-18T06:20:28.354Z,99.99
2022-10-18T06:22:55.313Z,99.99
2022-10-18T06:25:22.439Z,99.99
2022-10-18T06:27:49.040Z,99.99
2022-10-18T06:30:15.704Z,99.99
2022-10-18T06:32:45.616Z,99.99
2022-10-18T06:35:12.202Z,99.99
2022-10-18T06:37:38.837Z,99.99
2022-10-18T06:40:06.690Z,99.99
2022-10-18T06:42:34.468Z,99.99
2022-10-18T06:45:04.250Z,99.99
2022-10-18T06:47:31.556Z,99.99
2022-10-18T06:49:58.312Z,99.99
2022-10-18T06:52:25.896Z,99.99
2022-10-18T06:54:52.904Z,99.99
2022-10-18T06:57:23.201Z,99.99
2022-10-18T06:59:51.314Z,99.99
2022-10-18T07:02:18.078Z,99.99
2022-10-18T07:04:45.814Z,99.99
2022-10-18T07:07:12.340Z,99.99
2022-10-18T07:09:40.170Z,99.99
2022-10-18T07:12:07.921Z,99.99
2022-10-18T07:14:34.615Z,99.99
2022-10-18T07:17:01.248Z,99.99
2022-10-18T07:19:27.849Z,99.99
2022-10-18T07:21:55.002Z,99.99
2022-10-18T07:24:21.890Z,99.95
2022-10-18T07:26:48.488Z,99.69
2022-10-18T07:29:15.179Z,99.04
2022-10-18T07:31:41.779Z,98.91
2022-10-18T07:34:11.534Z,97.63
2022-10-18T07:36:38.367Z,95.98
2022-10-18T07:39:05.614Z,96.60
2022-10-18T07:41:34.045Z,95.61
2022-10-18T07:44:01.417Z,93.63
2022-10-18T07:46:28.134Z,90.22
2022-10-18T07:48:55.194Z,89.97
2022-10-18T07:51:22.688Z,88.47
2022-10-18T07:53:49.389Z,86.75
2022-10-18T07:56:20.527Z,85.48
2022-10-18T07:58:51.239Z,82.85
2022-10-18T08:01:19.751Z,80.69
2022-10-18T08:03:46.832Z,81.37
2022-10-18T08:06:16.363Z,80.01
2022-10-18T08:08:44.130Z,78.14
2022-10-18T08:11:15.000Z,76.45
2022-10-18T08:13:42.331Z,75.31
2022-10-18T08:16:11.823Z,74.21
2022-10-18T08:18:38.748Z,74.92
2022-10-18T08:21:08.302Z,73.09
2022-10-18T08:23:35.367Z,72.86
2022-10-18T08:26:04.357Z,72.81
2022-10-18T08:28:32.214Z,72.65
2022-10-18T08:31:03.688Z,71.57
2022-10-18T08:33:30.470Z,70.22
2022-10-18T08:35:58.575Z,69.10
2022-10-18T08:38:25.843Z,68.76
2022-10-18T08:40:52.748Z,67.80
2022-10-18T08:43:40.492Z,67.50
2022-10-18T08:46:11.776Z,66.71
2022-10-18T08:48:46.338Z,65.50
2022-10-18T08:51:33.443Z,64.91
2022-10-18T08:54:06.774Z,61.81
2022-10-18T08:56:34.555Z,60.80
2022-10-18T08:59:04.449Z,60.18
2022-10-18T09:01:52.887Z,61.90
2022-10-18T09:04:37.474Z,58.94
2022-10-18T09:07:22.419Z,59.90
2022-10-18T09:10:20.208Z,60.08
2022-10-18T09:12:46.716Z,59.40
2022-10-18T09:15:36.586Z,58.17
2022-10-18T09:18:23.212Z,54.75
2022-10-18T09:20:57.566Z,53.62
2022-10-18T09:23:44.349Z,52.66
2022-10-18T09:26:22.575Z,52.74
2022-10-18T09:28:49.792Z,52.82
2022-10-18T09:31:35.699Z,51.46
2022-10-18T09:34:21.715Z,49.54
2022-10-18T09:36:52.070Z,49.81
2022-10-18T09:39:23.036Z,49.22
2022-10-18T09:41:57.794Z,49.63
2022-10-18T09:44:27.737Z,48.27
2022-10-18T09:47:02.839Z,48.88
2022-10-18T09:49:38.513Z,47.12
2022-10-18T09:52:11.393Z,46.27
2022-10-18T09:54:43.737Z,46.00
2022-10-18T09:57:12.849Z,48.66
2022-10-18T09:59:50.558Z,46.29
2022-10-18T10:02:24.041Z,46.98
2022-10-18T10:04:52.061Z,44.50
2022-10-18T10:07:28.710Z,45.54
2022-10-18T10:10:07.168Z,44.91
2022-10-18T10:12:37.314Z,47.07
2022-10-18T10:15:28.135Z,44.05
2022-10-18T10:18:03.556Z,42.98
2022-10-18T10:20:36.959Z,41.91
2022-10-18T10:23:16.564Z,42.77
2022-10-18T10:25:43.415Z,45.86
2022-10-18T10:28:23.888Z,44.86
2022-10-18T10:30:50.733Z,43.10
2022-10-18T10:33:36.781Z,43.31
2022-10-18T10:36:17.529Z,44.08
2022-10-18T10:38:44.379Z,44.06
2022-10-18T10:41:24.629Z,44.87
2022-10-18T10:43:51.451Z,44.86
2022-10-18T10:46:20.154Z,44.93
2022-10-18T10:48:56.318Z,44.40
2022-10-18T10:51:38.721Z,43.22
2022-10-18T10:54:12.140Z,44.18
2022-10-18T10:56:55.347Z,44.49
2022-10-18T10:59:26.475Z,43.56
2022-10-18T11:02:20.313Z,43.42
2022-10-18T11:04:49.279Z,43.72
2022-10-18T11:07:46.933Z,42.88
2022-10-18T11:10:23.738Z,41.63
2022-10-18T11:13:04.107Z,42.43
2022-10-18T11:15:43.415Z,43.51
2022-10-18T11:18:24.188Z,44.03
2022-10-18T11:21:01.744Z,42.53
2022-10-18T11:23:32.649Z,42.14
2022-10-18T11:26:11.433Z,43.91
2022-10-18T11:28:56.652Z,42.79
2022-10-18T11:32:04.456Z,42.47
2022-10-18T11:35:11.415Z,39.96
2022-10-18T11:37:55.869Z,41.81
2022-10-18T11:40:51.396Z,41.42
2022-10-18T11:43:57.133Z,41.71
2022-10-18T11:46:25.285Z,39.91
2022-10-18T11:49:20.712Z,40.45
2022-10-18T11:52:11.964Z,40.15
2022-10-18T11:54:50.801Z,39.13
2022-10-18T11:57:29.844Z,39.96
2022-10-18T12:00:09.139Z,40.24
2022-10-18T12:03:06.701Z,39.92
2022-10-18T12:05:37.711Z,39.76
2022-10-18T12:08:15.855Z,38.62
2022-10-18T12:11:03.899Z,39.44
2022-10-18T12:13:54.252Z,39.93
2022-10-18T12:16:45.446Z,38.63
2022-10-18T12:19:31.386Z,38.62
2022-10-18T12:22:08.101Z,39.74
2022-10-18T12:24:35.745Z,39.05
2022-10-18T12:27:02.786Z,41.63
2022-10-18T12:29:50.232Z,41.96
2022-10-18T12:32:22.420Z,41.80
2022-10-18T12:35:00.005Z,40.72
2022-10-18T12:37:54.506Z,40.98
2022-10-18T12:40:40.901Z,40.18
2022-10-18T12:43:11.160Z,38.23
2022-10-18T12:45:53.895Z,39.78
2022-10-18T12:48:34.652Z,39.58
2022-10-18T12:51:21.377Z,40.11
2022-10-18T12:54:08.436Z,39.20
2022-10-18T12:56:41.965Z,38.49
2022-10-18T12:59:15.745Z,38.74
2022-10-18T13:01:52.013Z,39.30
2022-10-18T13:04:32.939Z,39.88
2022-10-18T13:07:08.342Z,40.53
2022-10-18T13:09:39.691Z,41.78
2022-10-18T13:12:09.278Z,40.09
2022-10-18T13:15:24.907Z,39.82
2022-10-18T13:18:21.633Z,40.37
2022-10-18T13:21:20.733Z,39.27
2022-10-18T13:24:15.281Z,39.84
2022-10-18T13:27:03.990Z,40.65
2022-10-18T13:29:42.867Z,41.75
2022-10-18T13:32:24.648Z,41.51
2022-10-18T13:34:51.806Z,40.29
2022-10-18T13:37:20.997Z,39.73
2022-10-18T13:39:47.932Z,39.11
2022-10-18T13:42:14.512Z,40.33
2022-10-18T13:44:43.594Z,40.26
2022-10-18T13:47:14.512Z,39.73
2022-10-18T13:49:43.826Z,40.78
2022-10-18T13:52:32.821Z,40.67
2022-10-18T13:55:37.062Z,41.74
2022-10-18T13:59:14.499Z,46.32
2022-10-18T14:02:10.233Z,49.36
2022-10-18T14:05:24.489Z,50.23
2022-10-18T14:07:56.733Z,50.33
2022-10-18T14:10:43.751Z,51.47
2022-10-18T14:13:23.178Z,51.10
2022-10-18T14:15:53.286Z,51.00
2022-10-18T14:18:30.030Z,51.62
2022-10-18T14:21:16.832Z,51.54
2022-10-18T14:23:46.416Z,51.59
2022-10-18T14:26:17.727Z,51.54
2022-10-18T14:28:59.591Z,52.25
2022-10-18T14:31:27.685Z,52.55
2022-10-18T14:33:58.399Z,50.63
2022-10-18T14:36:29.412Z,48.31
2022-10-18T14:39:01.105Z,47.82
2022-10-18T14:41:29.761Z,47.23
2022-10-18T14:44:15.483Z,46.29
2022-10-18T14:47:00.260Z,48.43
2022-10-18T14:49:27.712Z,52.16
2022-10-18T14:52:00.275Z,53.72
2022-10-18T14:54:37.197Z,54.60
2022-10-18T14:57:05.971Z,55.98
2022-10-18T14:59:39.377Z,56.11
2022-10-18T15:02:21.654Z,57.41
2022-10-18T15:04:59.872Z,57.08
2022-10-18T15:07:31.551Z,57.96
2022-10-18T15:10:05.310Z,59.61
2022-10-18T15:13:08.215Z,59.84
2022-10-18T15:15:32.978Z,59.53
2022-10-18T15:18:01.270Z,59.36
2022-10-18T15:20:33.724Z,59.75
2022-10-18T15:23:23.681Z,59.25
2022-10-18T15:25:52.046Z,58.89
2022-10-18T15:28:32.756Z,58.42
2022-10-18T15:31:01.749Z,58.13
2022-10-18T15:33:34.410Z,58.03
2022-10-18T15:36:12.519Z,58.98
2022-10-18T15:38:39.275Z,59.56
2022-10-18T15:41:57.447Z,59.99
2022-10-18T15:44:34.864Z,61.52
2022-10-18T15:47:11.752Z,62.70
2022-10-18T15:49:44.192Z,64.00
2022-10-18T15:52:31.586Z,66.07
2022-10-18T15:55:31.658Z,67.25
2022-10-18T15:58:20.950Z,68.64
2022-10-18T16:01:00.813Z,69.22
2022-10-18T16:03:29.307Z,69.99
2022-10-18T16:06:03.972Z,70.40
2022-10-18T16:08:32.272Z,70.60
2022-10-18T16:10:59.753Z,70.55
2022-10-18T16:13:26.899Z,70.45
2022-10-18T16:16:02.299Z,71.10
2022-10-18T16:18:28.984Z,71.41
2022-10-18T16:20:56.879Z,71.64
2022-10-18T16:23:28.540Z,71.66
2022-10-18T16:25:55.366Z,71.96
2022-10-18T16:28:24.168Z,72.30
2022-10-18T16:30:57.325Z,72.27
2022-10-18T16:33:24.994Z,72.52
2022-10-18T16:35:52.115Z,72.77
2022-10-18T16:38:24.274Z,72.84
2022-10-18T16:40:50.876Z,73.31
2022-10-18T16:43:17.414Z,73.26
2022-10-18T16:45:44.056Z,73.32
2022-10-18T16:48:21.089Z,74.18
2022-10-18T16:50:48.743Z,74.06
2022-10-18T16:53:15.388Z,74.53
2022-10-18T16:55:42.894Z,74.50
2022-10-18T16:58:17.985Z,75.03
2022-10-18T17:00:46.861Z,74.97
2022-10-18T17:03:14.165Z,75.69
2022-10-18T17:05:41.493Z,75.27
2022-10-18T17:08:19.616Z,75.89
2022-10-18T17:10:47.433Z,76.12
2022-10-18T17:13:14.319Z,76.31
2022-10-18T17:15:42.477Z,76.59
2022-10-18T17:18:17.837Z,77.01
2022-10-18T17:20:44.803Z,76.83
2022-10-18T17:23:12.046Z,77.20
2022-10-18T17:25:51.510Z,77.23
2022-10-18T17:28:27.307Z,77.72
2022-10-18T17:30:53.928Z,78.13
2022-10-18T17:33:20.382Z,78.24
2022-10-18T17:35:47.707Z,78.23
2022-10-18T17:38:14.446Z,78.58
2022-10-18T17:40:42.374Z,78.24
2022-10-18T17:43:10.526Z,78.42
2022-10-18T17:45:37.999Z,78.97
2022-10-18T17:48:04.537Z,79.59
2022-10-18T17:50:31.390Z,79.72
2022-10-18T17:52:57.981Z,79.95
2022-10-18T17:55:24.438Z,80.56
2022-10-18T17:57:51.999Z,80.71
2022-10-18T18:00:18.680Z,80.69
2022-10-18T18:02:46.619Z,81.00
2022-10-18T18:05:13.245Z,81.34
2022-10-18T18:07:39.834Z,81.53
2022-10-18T18:10:06.655Z,82.01
2022-10-18T18:12:33.393Z,82.24
2022-10-18T18:15:00.707Z,82.67
2022-10-18T18:17:34.143Z,82.47
2022-10-18T18:20:02.465Z,82.50
2022-10-18T18:22:28.953Z,83.13
2022-10-18T18:24:55.483Z,83.07
2022-10-18T18:27:22.280Z,83.46
2022-10-18T18:29:49.936Z,83.78
2022-10-18T18:32:16.487Z,83.88
2022-10-18T18:34:43.116Z,83.94
2022-10-18T18:37:09.747Z,84.48
2022-10-18T18:39:36.367Z,84.85
2022-10-18T18:42:03.978Z,84.94
2022-10-18T18:44:30.919Z,84.76
2022-10-18T18:46:58.427Z,84.94
2022-10-18T18:49:27.425Z,85.19
2022-10-18T18:51:54.398Z,85.83
2022-10-18T18:54:22.055Z,85.78
2022-10-18T18:56:48.583Z,86.15
2022-10-18T18:59:15.858Z,86.08
2022-10-18T19:01:43.555Z,86.70
2022-10-18T19:04:11.257Z,86.63
2022-10-18T19:06:42.820Z,86.53
2022-10-18T19:09:19.816Z,86.44
2022-10-18T19:11:47.465Z,86.65
2022-10-18T19:14:14.713Z,86.89
2022-10-18T19:16:55.404Z,87.00
2022-10-18T19:19:23.830Z,87.33
2022-10-18T19:21:55.902Z,87.54
2022-10-18T19:24:23.988Z,87.81
2022-10-18T19:26:53.100Z,88.08
2022-10-18T19:29:26.834Z,88.03
2022-10-18T19:31:55.946Z,87.99
2022-10-18T19:34:24.405Z,87.76
2022-10-18T19:36:51.923Z,87.58
2022-10-18T19:39:26.734Z,87.68
2022-10-18T19:41:55.971Z,87.72
2022-10-18T19:44:23.745Z,87.89
2022-10-18T19:46:50.810Z,88.02
2022-10-18T19:49:17.644Z,88.41
2022-10-18T19:51:44.778Z,88.42
2022-10-18T19:54:12.336Z,88.68
2022-10-18T19:56:39.451Z,88.69
2022-10-18T19:59:05.943Z,88.86
2022-10-18T20:01:32.557Z,89.22
2022-10-18T20:03:59.611Z,88.84
2022-10-18T20:06:26.253Z,89.19
2022-10-18T20:08:53.371Z,89.40
2022-10-18T20:11:24.352Z,89.52
2022-10-18T20:13:51.494Z,89.64
2022-10-18T20:16:25.467Z,89.86
2022-10-18T20:19:05.248Z,89.86
2022-10-18T20:21:35.576Z,89.79
2022-10-18T20:24:04.072Z,89.68
2022-10-18T20:26:30.784Z,90.04
2022-10-18T20:28:58.342Z,90.24
2022-10-18T20:31:30.477Z,90.11
2022-10-18T20:34:02.189Z,90.14
2022-10-18T20:36:30.350Z,90.33
2022-10-18T20:38:57.476Z,90.21
2022-10-18T20:41:26.973Z,90.40
2022-10-18T20:43:56.745Z,90.51
2022-10-18T20:46:23.747Z,90.50
2022-10-18T20:48:51.408Z,90.61
2022-10-18T20:51:18.316Z,90.55
2022-10-18T20:53:45.326Z,90.68
2022-10-18T20:56:14.101Z,90.22
2022-10-18T20:58:42.271Z,90.41
2022-10-18T21:01:20.708Z,90.66
2022-10-18T21:03:49.201Z,90.78
2022-10-18T21:06:19.901Z,90.88
2022-10-18T21:08:46.882Z,91.34
2022-10-18T21:11:14.272Z,91.63
